Time;durP1;ratioP1;P1;durP2;ratioP2;P2;SDS_P1;SDS_P2;PMS_P1;PMS_P2;Temp;Humidity;BMP_temperature;BMP_pressure;BME280_temperature;BME280_humidity;BME280_pressure;Samples;Min_cycle;Max_cycle;Signal;HPM_P1;HPM_P2
2022/07/29 00:02:26;;;;;;;7.57;2.15;;;16.50;99.90;;;;;;5112302;28;20050;-66
2022/07/29 00:04:54;;;;;;;4.07;2.30;;;16.40;99.90;;;;;;5112553;28;20082;-66
2022/07/29 00:07:20;;;;;;;5.80;2.72;;;16.40;99.90;;;;;;5091672;28;20048;-66
2022/07/29 00:09:47;;;;;;;6.32;2.78;;;16.40;99.90;;;;;;5113466;28;20048;-66
2022/07/29 00:12:18;;;;;;;3.85;2.10;;;16.40;99.90;;;;;;5112297;28;20051;-68
2022/07/29 00:14:52;;;;;;;7.95;2.20;;;16.40;99.90;;;;;;5106042;28;20043;-66
2022/07/29 00:17:19;;;;;;;8.23;2.17;;;16.30;99.90;;;;;;5076649;28;20059;-66
2022/07/29 00:19:46;;;;;;;5.95;2.95;;;16.30;99.90;;;;;;5111821;28;20047;-65
2022/07/29 00:22:13;;;;;;;5.30;2.10;;;16.30;99.90;;;;;;5112429;28;20402;-66
2022/07/29 00:24:40;;;;;;;9.25;3.28;;;16.30;99.90;;;;;;5085461;28;20056;-66
2022/07/29 00:27:07;;;;;;;7.75;3.10;;;16.30;99.90;;;;;;5094434;28;20055;-66
2022/07/29 00:29:34;;;;;;;4.82;2.88;;;16.30;99.90;;;;;;5110612;28;20040;-66
2022/07/29 00:32:02;;;;;;;6.18;2.88;;;16.30;99.90;;;;;;5110604;28;20055;-66
2022/07/29 00:37:15;;;;;;;8.05;2.85;;;16.30;99.90;;;;;;5110199;28;20054;-66
2022/07/29 00:39:42;;;;;;;8.20;3.95;;;16.30;99.90;;;;;;5111218;28;20047;-66
2022/07/29 00:42:09;;;;;;;6.18;2.97;;;16.30;99.90;;;;;;5091380;28;20044;-68
2022/07/29 00:44:40;;;;;;;8.90;3.33;;;16.30;99.90;;;;;;5107190;28;20483;-66
2022/07/29 00:47:08;;;;;;;9.77;3.95;;;16.30;99.90;;;;;;5111386;28;20044;-66
2022/07/29 00:49:35;;;;;;;5.15;2.85;;;16.30;99.90;;;;;;5107814;28;20048;-65
2022/07/29 00:52:03;;;;;;;8.45;3.65;;;16.30;99.90;;;;;;5111899;28;20111;-65
2022/07/29 00:54:30;;;;;;;7.30;3.17;;;16.30;99.90;;;;;;5112284;28;20479;-66
2022/07/29 00:56:58;;;;;;;8.35;3.28;;;16.30;99.90;;;;;;5110430;28;20039;-66
2022/07/29 00:59:26;;;;;;;6.53;3.28;;;16.30;99.90;;;;;;5093717;28;20101;-67
2022/07/29 01:02:04;;;;;;;6.60;4.13;;;16.40;99.90;;;;;;5109365;28;20421;-66
2022/07/29 01:04:31;;;;;;;10.07;3.30;;;16.40;99.90;;;;;;5108784;28;20040;-66
2022/07/29 01:06:58;;;;;;;8.85;4.03;;;16.40;99.90;;;;;;5091649;28;20065;-67
2022/07/29 01:09:25;;;;;;;4.90;3.08;;;16.40;99.90;;;;;;5091910;28;20085;-66
2022/07/29 01:12:16;;;;;;;6.95;3.30;;;16.40;99.90;;;;;;5096114;28;20056;-68
2022/07/29 01:14:44;;;;;;;6.70;4.13;;;16.40;99.90;;;;;;5106257;28;20513;-66
2022/07/29 01:17:14;;;;;;;9.80;3.38;;;16.40;99.90;;;;;;5109338;28;20044;-66
2022/07/29 01:20:03;;;;;;;5.10;2.80;;;16.40;99.90;;;;;;5093943;28;20043;-66
2022/07/29 01:22:36;;;;;;;;;;;16.40;99.90;;;;;;5088199;28;20043;-67
2022/07/29 01:25:22;;;;;;;7.93;2.97;;;16.50;99.90;;;;;;5110890;28;20298;-66
2022/07/29 01:28:19;;;;;;;9.30;3.65;;;16.50;99.90;;;;;;5110907;28;20036;-66
2022/07/29 01:30:50;;;;;;;5.78;3.30;;;16.50;99.90;;;;;;5108504;28;20122;-66
2022/07/29 01:36:07;;;;;;;10.90;3.70;;;16.50;99.90;;;;;;5099780;28;20066;-67
2022/07/29 01:38:34;;;;;;;5.38;3.53;;;16.60;99.90;;;;;;5091826;28;20043;-66
2022/07/29 01:41:15;;;;;;;6.70;3.03;;;16.60;99.90;;;;;;5103829;28;20463;-67
2022/07/29 01:43:44;;;;;;;7.05;3.10;;;16.60;99.90;;;;;;5100205;27;20047;-66
2022/07/29 01:46:17;;;;;;;6.38;2.95;;;16.60;99.90;;;;;;5072919;28;20062;-66
2022/07/29 01:48:48;;;;;;;7.47;2.97;;;16.60;99.90;;;;;;5110747;28;20109;-66
2022/07/29 01:51:27;;;;;;;9.82;4.05;;;16.60;99.90;;;;;;5101172;28;20491;-66
2022/07/29 01:54:08;;;;;;;5.53;3.05;;;16.60;99.90;;;;;;5076300;28;20047;-66
2022/07/29 01:56:36;;;;;;;8.38;3.08;;;16.60;99.90;;;;;;5107968;28;20051;-66
2022/07/29 01:59:03;;;;;;;6.20;3.15;;;16.60;99.90;;;;;;5110626;28;20050;-66
2022/07/29 02:01:31;;;;;;;4.88;3.53;;;16.50;99.90;;;;;;5110537;28;20047;-67
2022/07/29 02:03:58;;;;;;;6.55;3.35;;;16.50;99.90;;;;;;5110766;28;20043;-66
2022/07/29 02:06:24;;;;;;;7.47;3.53;;;16.50;99.90;;;;;;5106821;28;20055;-66
2022/07/29 02:08:51;;;;;;;5.45;2.88;;;16.50;99.90;;;;;;5086946;28;20647;-68
2022/07/29 02:11:18;;;;;;;7.75;3.63;;;16.50;99.90;;;;;;5110570;28;20043;-66
2022/07/29 02:13:45;;;;;;;5.90;3.03;;;16.50;99.90;;;;;;5106476;28;20055;-66
2022/07/29 02:16:12;;;;;;;7.05;3.08;;;16.50;99.90;;;;;;5109395;28;20060;-66
2022/07/29 02:18:40;;;;;;;5.07;2.97;;;16.50;99.90;;;;;;5088379;28;20052;-66
2022/07/29 02:21:07;;;;;;;6.47;2.88;;;16.50;99.90;;;;;;5111388;28;20372;-66
2022/07/29 02:23:41;;;;;;;6.65;3.25;;;16.40;99.90;;;;;;5111215;28;20083;-66
2022/07/29 02:26:17;;;;;;;7.22;3.00;;;16.40;99.90;;;;;;5107570;28;20146;-66
2022/07/29 02:28:44;;;;;;;8.57;3.15;;;16.30;99.90;;;;;;5106733;28;20372;-66
2022/07/29 02:31:11;;;;;;;6.57;3.53;;;16.30;99.90;;;;;;5109151;28;20112;-66
2022/07/29 02:33:38;;;;;;;7.38;3.45;;;16.30;99.90;;;;;;5094212;28;20052;-65
2022/07/29 02:36:05;;;;;;;10.27;3.40;;;16.20;99.90;;;;;;5109501;28;20130;-67
2022/07/29 02:38:50;;;;;;;5.47;3.03;;;16.20;99.90;;;;;;5092056;28;20048;-66
2022/07/29 02:41:38;;;;;;;6.07;3.25;;;16.10;99.90;;;;;;5098250;28;20495;-66
2022/07/29 02:44:20;;;;;;;5.30;2.70;;;16.00;99.90;;;;;;5110087;28;20089;-66
2022/07/29 02:46:55;;;;;;;6.43;3.33;;;15.90;99.90;;;;;;5094021;28;20047;-65
2022/07/29 02:49:25;;;;;;;5.88;3.10;;;15.80;99.90;;;;;;5111227;28;20475;-66
2022/07/29 02:51:58;;;;;;;5.47;2.55;;;15.70;99.90;;;;;;5115469;28;20047;-66
2022/07/29 02:54:34;;;;;;;6.60;2.97;;;15.50;99.90;;;;;;5113858;28;20472;-67
2022/07/29 02:57:06;;;;;;;5.05;3.00;;;15.40;99.90;;;;;;5113058;28;20044;-66
2022/07/29 02:59:34;;;;;;;6.35;3.75;;;15.30;99.90;;;;;;5098603;28;20055;-65
2022/07/29 03:02:01;;;;;;;5.25;2.70;;;15.20;99.90;;;;;;5096588;28;20495;-65
2022/07/29 03:04:28;;;;;;;6.68;3.05;;;15.20;99.90;;;;;;5113264;28;20055;-66
2022/07/29 03:06:57;;;;;;;6.57;2.90;;;15.10;99.90;;;;;;5114912;28;20146;-66
2022/07/29 03:09:24;;;;;;;5.47;2.75;;;15.00;99.90;;;;;;5113350;28;20470;-66
2022/07/29 03:11:53;;;;;;;7.72;2.92;;;14.90;99.90;;;;;;5096919;28;20055;-66
2022/07/29 03:14:21;;;;;;;6.07;2.80;;;14.90;99.90;;;;;;5092577;28;20052;-66
2022/07/29 03:16:48;;;;;;;5.57;2.78;;;14.80;99.90;;;;;;5113678;28;20236;-65
2022/07/29 03:19:15;;;;;;;4.88;3.30;;;14.70;99.90;;;;;;5113484;28;20058;-67
2022/07/29 03:21:42;;;;;;;4.55;3.15;;;14.70;99.90;;;;;;5113530;28;20048;-65
2022/07/29 03:24:09;;;;;;;5.65;3.15;;;14.60;99.90;;;;;;5113211;28;20599;-66
2022/07/29 03:26:36;;;;;;;13.57;3.88;;;14.60;99.90;;;;;;5113595;28;20141;-65
2022/07/29 03:29:03;;;;;;;7.20;3.75;;;14.50;99.90;;;;;;5112272;28;20047;-67
2022/07/29 03:31:31;;;;;;;5.53;2.83;;;14.50;99.90;;;;;;5110180;28;20047;-66
2022/07/29 03:33:59;;;;;;;7.70;3.13;;;14.40;99.90;;;;;;5108382;28;20052;-65
2022/07/29 03:36:26;;;;;;;5.80;3.25;;;14.40;99.90;;;;;;5112271;28;20426;-65
2022/07/29 03:38:54;;;;;;;6.15;3.17;;;14.30;99.90;;;;;;5114589;28;20070;-66
2022/07/29 03:41:21;;;;;;;7.43;3.30;;;14.30;99.90;;;;;;5111503;28;20097;-66
2022/07/29 03:43:48;;;;;;;6.75;3.10;;;14.20;99.90;;;;;;5113028;28;20086;-66
2022/07/29 03:46:15;;;;;;;4.72;2.75;;;14.10;99.90;;;;;;5095874;28;20088;-66
2022/07/29 03:48:42;;;;;;;9.60;3.20;;;14.10;99.90;;;;;;5111676;28;20127;-66
2022/07/29 03:51:09;;;;;;;5.63;3.15;;;14.10;99.90;;;;;;5112172;28;20383;-65
2022/07/29 03:53:37;;;;;;;10.40;4.07;;;14.00;99.90;;;;;;5113276;28;20048;-67
2022/07/29 03:56:04;;;;;;;5.35;2.88;;;14.00;99.90;;;;;;5111182;28;20062;-66
2022/07/29 03:58:31;;;;;;;5.00;3.00;;;13.90;99.90;;;;;;5113574;28;20047;-66
2022/07/29 04:00:57;;;;;;;5.88;3.08;;;13.90;99.90;;;;;;5091086;28;20040;-65
2022/07/29 04:03:24;;;;;;;8.35;3.63;;;13.90;99.90;;;;;;5106953;27;20044;-66
2022/07/29 04:06:02;;;;;;;5.35;2.97;;;13.80;99.90;;;;;;5112691;28;20051;-66
2022/07/29 04:08:29;;;;;;;6.13;3.60;;;13.80;99.90;;;;;;5114005;28;20050;-66
2022/07/29 04:10:56;;;;;;;7.18;3.25;;;13.70;99.90;;;;;;5112227;28;20043;-66
2022/07/29 04:13:23;;;;;;;5.97;3.08;;;13.70;99.90;;;;;;5108103;28;20461;-66
2022/07/29 04:15:50;;;;;;;6.28;4.00;;;13.70;99.90;;;;;;5109223;28;20050;-67
2022/07/29 04:18:16;;;;;;;5.45;4.13;;;13.70;99.90;;;;;;5103720;28;20495;-65
2022/07/29 04:20:43;;;;;;;6.57;3.28;;;13.70;99.90;;;;;;5109391;28;20126;-65
2022/07/29 04:23:10;;;;;;;7.13;3.50;;;13.60;99.90;;;;;;5108685;28;20040;-65
2022/07/29 04:25:38;;;;;;;6.38;3.00;;;13.60;99.90;;;;;;5111834;28;20044;-65
2022/07/29 04:28:05;;;;;;;6.03;3.30;;;13.50;99.90;;;;;;5111918;28;20052;-65
2022/07/29 04:30:33;;;;;;;5.35;3.00;;;13.60;99.90;;;;;;5112535;28;20056;-66
2022/07/29 04:33:01;;;;;;;4.75;3.05;;;13.50;99.90;;;;;;5111196;28;20058;-67
2022/07/29 04:35:28;;;;;;;7.05;3.40;;;13.50;99.90;;;;;;5110433;28;20043;-67
2022/07/29 04:37:55;;;;;;;6.25;3.33;;;13.50;99.90;;;;;;5111318;28;20056;-66
2022/07/29 04:40:22;;;;;;;6.57;2.92;;;13.50;99.90;;;;;;5095998;28;20529;-66
2022/07/29 04:42:49;;;;;;;5.60;2.75;;;13.50;99.90;;;;;;5112859;28;20051;-66
2022/07/29 04:45:16;;;;;;;8.38;3.35;;;13.50;99.90;;;;;;5087147;28;20048;-65
2022/07/29 04:47:48;;;;;;;6.00;3.28;;;13.50;99.90;;;;;;5106180;28;20125;-66
2022/07/29 04:50:15;;;;;;;6.65;3.53;;;13.60;99.90;;;;;;5109268;28;20047;-65
2022/07/29 04:52:42;;;;;;;4.78;2.60;;;13.60;99.90;;;;;;5112252;28;20475;-65
2022/07/29 04:55:09;;;;;;;4.30;3.38;;;13.60;99.90;;;;;;5108623;28;20055;-66
2022/07/29 04:57:36;;;;;;;6.60;3.67;;;13.60;99.90;;;;;;5094967;28;20047;-66
2022/07/29 05:00:04;;;;;;;9.00;3.60;;;13.60;99.90;;;;;;5111336;28;20039;-66
2022/07/29 05:02:31;;;;;;;7.32;4.68;;;13.60;99.90;;;;;;5110738;28;20047;-65
2022/07/29 05:04:58;;;;;;;7.32;3.75;;;13.60;99.90;;;;;;5108529;28;20044;-65
2022/07/29 05:07:25;;;;;;;6.28;2.92;;;13.70;99.90;;;;;;5103171;28;20053;-65
2022/07/29 05:09:52;;;;;;;6.28;3.55;;;13.80;99.90;;;;;;5112902;28;20051;-66
2022/07/29 05:12:19;;;;;;;7.82;4.25;;;13.80;99.90;;;;;;5112493;28;20058;-65
2022/07/29 05:14:46;;;;;;;5.82;3.70;;;13.90;99.90;;;;;;5087238;28;20051;-65
2022/07/29 05:17:13;;;;;;;5.95;3.90;;;14.10;99.90;;;;;;5109494;28;20051;-65
2022/07/29 05:19:40;;;;;;;6.82;3.90;;;14.50;99.90;;;;;;5113143;28;20051;-66
2022/07/29 05:22:07;;;;;;;11.55;4.55;;;15.10;99.90;;;;;;5109053;28;20054;-68
2022/07/29 05:24:34;;;;;;;6.38;3.67;;;15.60;99.90;;;;;;5111421;28;20059;-66
2022/07/29 05:27:01;;;;;;;6.55;3.30;;;16.10;99.90;;;;;;5110242;28;20044;-66
2022/07/29 05:29:27;;;;;;;5.72;3.25;;;16.50;99.90;;;;;;5108197;28;20502;-66
2022/07/29 05:32:10;;;;;;;5.47;3.72;;;16.90;99.90;;;;;;5112226;28;20043;-66
2022/07/29 05:34:38;;;;;;;6.38;3.90;;;17.30;99.90;;;;;;5112457;28;20402;-66
2022/07/29 05:37:20;;;;;;;6.35;3.28;;;17.70;99.90;;;;;;5105714;28;20097;-67
2022/07/29 05:39:47;;;;;;;4.68;2.80;;;18.00;99.90;;;;;;5103179;28;20047;-66
2022/07/29 05:42:23;;;;;;;5.32;3.45;;;18.30;99.90;;;;;;5078477;28;20051;-66
2022/07/29 05:44:50;;;;;;;5.35;3.13;;;18.70;99.90;;;;;;5094451;28;20379;-66
2022/07/29 05:47:17;;;;;;;6.80;3.33;;;19.00;99.90;;;;;;5110462;28;20051;-65
2022/07/29 05:49:45;;;;;;;4.88;2.95;;;19.30;99.90;;;;;;5097071;28;20066;-65
2022/07/29 05:52:12;;;;;;;5.90;3.13;;;19.60;99.90;;;;;;5108200;28;20059;-66
2022/07/29 05:54:39;;;;;;;7.00;2.97;;;19.90;99.90;;;;;;5110915;28;20134;-66
2022/07/29 05:57:06;;;;;;;7.70;3.30;;;20.20;99.90;;;;;;5108201;28;20105;-67
2022/07/29 05:59:37;;;;;;;5.95;3.20;;;20.30;99.90;;;;;;5109336;28;20402;-66
2022/07/29 06:02:04;;;;;;;6.97;2.97;;;20.30;99.90;;;;;;5109293;28;20050;-66
2022/07/29 06:04:33;;;;;;;8.95;4.55;;;20.20;99.90;;;;;;5108169;28;20048;-66
2022/07/29 06:07:00;;;;;;;6.18;3.00;;;20.10;99.90;;;;;;5108869;28;20162;-66
2022/07/29 06:09:27;;;;;;;4.57;2.83;;;20.00;99.90;;;;;;5108953;28;20046;-66
2022/07/29 06:11:55;;;;;;;6.05;3.25;;;19.90;99.90;;;;;;5089007;28;20052;-67
2022/07/29 06:14:21;;;;;;;8.20;2.75;;;20.00;99.90;;;;;;5081929;28;20047;-66
2022/07/29 06:16:48;;;;;;;9.02;2.88;;;20.00;99.90;;;;;;5107508;28;20052;-66
2022/07/29 06:19:15;;;;;;;69.63;62.10;;;20.20;99.90;;;;;;5106424;28;20047;-64
2022/07/29 06:21:43;;;;;;;21.92;13.88;;;20.20;99.90;;;;;;5110002;28;20046;-66
2022/07/29 06:24:12;;;;;;;8.45;5.22;;;20.20;99.90;;;;;;5109693;28;20044;-65
2022/07/29 06:26:40;;;;;;;9.63;3.42;;;20.20;99.90;;;;;;5088113;28;20049;-65
2022/07/29 06:29:07;;;;;;;6.78;3.22;;;20.10;99.90;;;;;;5100190;28;20043;-66
2022/07/29 06:31:34;;;;;;;13.20;4.65;;;20.10;99.90;;;;;;5094004;28;20052;-64
2022/07/29 06:34:01;;;;;;;8.50;3.08;;;20.20;99.90;;;;;;5083771;28;20070;-67
2022/07/29 06:36:29;;;;;;;17.20;5.43;;;20.20;99.90;;;;;;5110235;28;20043;-67
2022/07/29 06:38:56;;;;;;;7.05;3.80;;;20.30;99.90;;;;;;5111388;28;20055;-67
2022/07/29 06:41:23;;;;;;;10.15;3.35;;;20.40;99.90;;;;;;5109577;28;20375;-67
2022/07/29 06:43:51;;;;;;;19.83;3.83;;;20.40;99.90;;;;;;5102860;28;20519;-67
2022/07/29 06:46:21;;;;;;;12.23;3.30;;;20.50;99.90;;;;;;5101013;28;20065;-67
2022/07/29 06:48:48;;;;;;;9.18;3.05;;;20.60;99.90;;;;;;5110984;28;20051;-68
2022/07/29 06:51:16;;;;;;;9.75;3.28;;;20.60;99.90;;;;;;5090447;28;20540;-67
2022/07/29 06:53:48;;;;;;;6.45;3.38;;;20.40;99.90;;;;;;5091989;28;20060;-67
2022/07/29 06:56:26;;;;;;;11.27;3.45;;;20.40;99.90;;;;;;5097266;28;20075;-67
2022/07/29 06:58:53;;;;;;;7.95;4.30;;;20.50;99.90;;;;;;5110773;28;20040;-67
2022/07/29 07:01:20;;;;;;;9.70;3.05;;;20.60;99.90;;;;;;5093014;28;20047;-69
2022/07/29 07:03:47;;;;;;;6.47;3.53;;;20.60;99.90;;;;;;5111185;28;20059;-69
2022/07/29 07:06:14;;;;;;;7.53;2.90;;;20.70;99.90;;;;;;5110785;28;20138;-68
2022/07/29 07:08:41;;;;;;;8.20;2.92;;;20.70;99.90;;;;;;5111736;28;20418;-68
2022/07/29 07:11:08;;;;;;;7.05;3.33;;;20.70;99.90;;;;;;5110117;28;20044;-67
2022/07/29 07:13:35;;;;;;;7.65;3.20;;;20.90;99.90;;;;;;5111292;28;20487;-67
2022/07/29 07:16:03;;;;;;;10.73;3.95;;;21.10;99.90;;;;;;5093488;28;20056;-67
2022/07/29 07:18:30;;;;;;;7.38;3.63;;;21.20;99.90;;;;;;5108881;28;20067;-67
2022/07/29 07:20:58;;;;;;;7.28;2.78;;;21.20;99.90;;;;;;5087706;28;20047;-67
2022/07/29 07:23:25;;;;;;;8.10;3.28;;;21.00;99.90;;;;;;5080075;28;20048;-66
2022/07/29 07:25:52;;;;;;;10.68;3.95;;;21.00;99.90;;;;;;5089090;28;20051;-67
2022/07/29 07:28:19;;;;;;;8.38;4.00;;;20.90;99.90;;;;;;5083437;28;20054;-67
2022/07/29 07:30:51;;;;;;;14.45;4.13;;;20.90;99.90;;;;;;5102021;28;20126;-68
2022/07/29 07:33:18;;;;;;;17.73;3.88;;;20.90;99.90;;;;;;5110431;28;20044;-67
2022/07/29 07:35:45;;;;;;;9.15;3.55;;;20.80;99.90;;;;;;5113293;28;20097;-66
2022/07/29 07:38:12;;;;;;;11.23;3.75;;;20.70;99.90;;;;;;5111279;28;20503;-68
2022/07/29 07:40:39;;;;;;;13.10;3.25;;;20.60;99.90;;;;;;5110679;27;20086;-68
2022/07/29 07:43:07;;;;;;;9.45;3.08;;;20.60;99.90;;;;;;5074184;28;20051;-67
2022/07/29 07:45:34;;;;;;;11.32;3.38;;;20.60;99.90;;;;;;5082552;28;20044;-67
2022/07/29 07:48:01;;;;;;;61.08;51.35;;;20.60;99.90;;;;;;5108262;28;20039;-68
2022/07/29 07:50:28;;;;;;;13.90;10.73;;;20.70;99.90;;;;;;5111737;28;20048;-68
2022/07/29 07:52:57;;;;;;;10.15;4.72;;;20.70;99.90;;;;;;5113005;28;20040;-69
2022/07/29 07:55:25;;;;;;;9.30;3.40;;;20.90;99.90;;;;;;5113514;28;20482;-69
2022/07/29 07:57:52;;;;;;;11.25;4.13;;;20.90;99.90;;;;;;5113351;28;20074;-68
2022/07/29 08:00:19;;;;;;;6.05;2.92;;;21.00;99.90;;;;;;5114399;28;20044;-68
2022/07/29 08:02:49;;;;;;;6.53;3.47;;;21.10;99.90;;;;;;5112936;28;20052;-69
2022/07/29 08:05:17;;;;;;;8.77;3.80;;;21.10;99.90;;;;;;5114649;28;20063;-70
2022/07/29 08:07:45;;;;;;;11.32;4.00;;;21.10;99.90;;;;;;5115046;28;20059;-73
2022/07/29 08:10:13;;;;;;;8.35;2.88;;;21.20;99.90;;;;;;5096209;28;20054;-70
2022/07/29 08:12:41;;;;;;;16.67;3.67;;;21.20;99.90;;;;;;5114651;28;20039;-70
2022/07/29 08:15:09;;;;;;;13.13;3.92;;;21.00;99.90;;;;;;5114737;28;20402;-70
2022/07/29 08:17:35;;;;;;;5.78;3.38;;;20.90;99.90;;;;;;5114521;28;20142;-70
2022/07/29 08:20:03;;;;;;;8.98;3.28;;;20.80;99.90;;;;;;5096663;28;20048;-70
2022/07/29 08:22:30;;;;;;;8.18;3.13;;;20.80;99.90;;;;;;5112704;28;20059;-70
2022/07/29 08:24:57;;;;;;;9.32;2.78;;;20.80;99.90;;;;;;5112909;28;20044;-70
2022/07/29 08:27:26;;;;;;;5.68;2.35;;;20.90;99.90;;;;;;5096329;28;20063;-70
2022/07/29 08:30:09;;;;;;;10.48;3.35;;;20.90;99.90;;;;;;5114532;28;20047;-70
2022/07/29 08:32:37;;;;;;;10.50;3.17;;;21.10;99.90;;;;;;5113100;28;20086;-70
2022/07/29 08:35:22;;;;;;;10.75;3.08;;;21.20;99.90;;;;;;5098818;28;20091;-70
2022/07/29 08:37:49;;;;;;;13.60;3.55;;;21.10;99.90;;;;;;5113077;28;20048;-70
2022/07/29 08:40:16;;;;;;;9.07;2.92;;;21.10;99.90;;;;;;5095704;28;20047;-70
2022/07/29 08:42:43;;;;;;;11.82;3.40;;;21.10;99.90;;;;;;5112922;28;20044;-70
2022/07/29 08:45:10;;;;;;;5.07;2.85;;;21.10;99.90;;;;;;5112905;28;20043;-70
2022/07/29 08:47:39;;;;;;;7.00;2.50;;;21.10;99.90;;;;;;5112614;28;20055;-70
2022/07/29 08:50:07;;;;;;;8.15;3.13;;;21.00;99.90;;;;;;5095004;28;20054;-70
2022/07/29 08:52:38;;;;;;;6.45;2.55;;;21.00;99.90;;;;;;5113887;28;20139;-70
2022/07/29 08:55:09;;;;;;;8.43;2.97;;;21.00;99.90;;;;;;5112052;28;20063;-70
2022/07/29 08:57:37;;;;;;;8.82;2.95;;;21.00;99.90;;;;;;5111783;28;20084;-70
2022/07/29 09:00:17;;;;;;;6.60;3.17;;;21.10;99.90;;;;;;5112957;28;20051;-70
2022/07/29 09:02:45;;;;;;;12.25;3.33;;;21.10;99.90;;;;;;5112458;28;20048;-70
2022/07/29 09:05:13;;;;;;;9.95;5.28;;;21.10;99.90;;;;;;5112313;28;20483;-70
2022/07/29 09:07:42;;;;;;;6.82;2.63;;;21.10;99.90;;;;;;5112905;28;20127;-71
2022/07/29 09:10:10;;;;;;;6.78;2.58;;;21.10;99.90;;;;;;5114388;28;20051;-70
2022/07/29 09:12:37;;;;;;;8.90;3.20;;;21.10;99.90;;;;;;5112440;28;20128;-70
2022/07/29 09:15:04;;;;;;;7.90;3.45;;;21.10;99.90;;;;;;5095643;28;20069;-70
2022/07/29 09:17:45;;;;;;;14.00;2.80;;;21.10;99.90;;;;;;5111936;28;20431;-70
2022/07/29 09:20:14;;;;;;;7.95;3.30;;;21.20;99.90;;;;;;5111724;28;20071;-70
2022/07/29 09:22:41;;;;;;;9.93;3.33;;;21.20;99.90;;;;;;5112133;28;20139;-70
2022/07/29 09:25:08;;;;;;;7.80;3.05;;;21.20;99.90;;;;;;5112193;28;20166;-70
2022/07/29 09:27:35;;;;;;;6.35;2.30;;;21.20;99.90;;;;;;5112643;28;20479;-70
2022/07/29 09:30:10;;;;;;;6.93;2.80;;;21.10;99.90;;;;;;5112197;28;20044;-70
2022/07/29 09:32:57;;;;;;;6.32;3.13;;;21.30;99.90;;;;;;5095358;28;20406;-70
2022/07/29 09:35:24;;;;;;;6.78;2.95;;;21.30;99.90;;;;;;5095458;28;20502;-70
2022/07/29 09:37:51;;;;;;;7.38;3.17;;;21.40;99.90;;;;;;5095035;28;20501;-70
2022/07/29 09:40:23;;;;;;;7.15;2.55;;;21.50;99.90;;;;;;5111835;28;20069;-70
2022/07/29 09:42:55;;;;;;;4.93;2.50;;;21.50;99.90;;;;;;5091706;28;20055;-70
2022/07/29 09:45:29;;;;;;;6.88;2.33;;;21.50;99.90;;;;;;5080214;28;20052;-70
2022/07/29 09:48:00;;;;;;;10.73;2.75;;;21.50;99.90;;;;;;5109699;28;20079;-70
2022/07/29 09:50:40;;;;;;;6.07;2.58;;;21.60;99.90;;;;;;5111376;28;20048;-70
2022/07/29 09:53:09;;;;;;;4.55;2.42;;;21.70;99.90;;;;;;5112811;28;20100;-70
2022/07/29 09:55:51;;;;;;;9.30;3.42;;;21.60;99.90;;;;;;5111699;28;20043;-70
2022/07/29 09:58:20;;;;;;;4.65;2.45;;;21.70;99.90;;;;;;5112150;28;20043;-70
2022/07/29 10:00:47;;;;;;;7.03;2.73;;;21.80;99.90;;;;;;5111646;28;20080;-70
2022/07/29 10:03:15;;;;;;;11.98;3.13;;;21.90;99.90;;;;;;5094275;28;20417;-70
2022/07/29 10:05:43;;;;;;;4.88;2.75;;;21.90;99.90;;;;;;5110698;28;20482;-70
2022/07/29 10:08:12;;;;;;;9.02;2.58;;;22.00;99.90;;;;;;5091160;28;20139;-69
2022/07/29 10:10:41;;;;;;;10.38;2.58;;;22.00;99.90;;;;;;5077053;28;20040;-70
2022/07/29 10:13:09;;;;;;;16.73;11.27;;;22.00;99.90;;;;;;5094228;28;20051;-70
2022/07/29 10:15:44;;;;;;;15.15;13.15;;;21.90;99.90;;;;;;5111571;28;20051;-70
2022/07/29 10:18:11;;;;;;;10.02;3.97;;;22.10;99.90;;;;;;5077784;28;20043;-70
2022/07/29 10:20:39;;;;;;;7.97;3.15;;;22.10;99.90;;;;;;5111456;28;20044;-70
2022/07/29 10:23:06;;;;;;;5.68;3.20;;;22.30;99.90;;;;;;5093469;28;20474;-70
2022/07/29 10:25:33;;;;;;;7.10;2.67;;;22.40;99.90;;;;;;5110997;28;20142;-70
2022/07/29 10:27:59;;;;;;;8.02;3.63;;;22.30;99.90;;;;;;5112459;28;20047;-70
2022/07/29 10:30:27;;;;;;;11.88;3.72;;;22.30;99.90;;;;;;5112530;28;20043;-70
2022/07/29 10:33:03;;;;;;;8.93;2.40;;;22.40;99.40;;;;;;5110790;28;20048;-70
2022/07/29 10:35:40;;;;;;;4.80;2.05;;;22.40;98.30;;;;;;5112392;28;20044;-70
2022/07/29 10:38:45;;;;;;;5.88;2.10;;;22.40;98.70;;;;;;5094350;28;20043;-70
2022/07/29 10:42:07;;;;;;;7.07;2.33;;;22.40;97.30;;;;;;5110949;28;20096;-70
2022/07/29 10:44:34;;;;;;;5.97;2.30;;;22.30;96.80;;;;;;5110940;28;20444;-70
2022/07/29 10:47:03;;;;;;;4.43;2.67;;;22.30;98.20;;;;;;5094019;28;20054;-70
2022/07/29 10:49:30;;;;;;;5.10;2.60;;;22.40;97.80;;;;;;5112014;28;20066;-70
2022/07/29 10:52:10;;;;;;;4.45;2.10;;;22.40;96.80;;;;;;5107179;28;20054;-70
2022/07/29 10:54:37;;;;;;;9.00;2.75;;;22.30;96.70;;;;;;5100061;28;20048;-70
2022/07/29 10:57:15;;;;;;;6.07;2.20;;;22.30;97.00;;;;;;5091688;28;20087;-70
2022/07/29 10:59:49;;;;;;;6.78;2.22;;;22.30;96.50;;;;;;5106795;28;20510;-69
2022/07/29 11:02:31;;;;;;;7.45;2.97;;;22.40;97.50;;;;;;5090125;28;20044;-71
2022/07/29 11:05:11;;;;;;;;;;;22.40;95.60;;;;;;5106392;28;20048;-71
2022/07/29 11:07:40;;;;;;;8.77;2.35;;;22.50;95.40;;;;;;5099601;28;19920;-68
2022/07/29 11:10:27;;;;;;;15.75;8.55;;;22.70;96.80;;;;;;5095061;28;20100;-69
2022/07/29 11:12:58;;;;;;;9.40;3.63;;;22.90;95.20;;;;;;5095331;28;20059;-69
2022/07/29 11:15:24;;;;;;;7.70;6.07;;;22.90;95.10;;;;;;5112605;28;20055;-69
2022/07/29 11:17:57;;;;;;;4.82;2.50;;;23.10;94.70;;;;;;5094817;28;20043;-70
2022/07/29 11:20:37;;;;;;;6.47;1.95;;;23.20;93.60;;;;;;5115911;27;20101;-69
2022/07/29 11:23:28;;;;;;;7.85;3.25;;;23.20;91.00;;;;;;5113905;28;20051;-65
2022/07/29 11:26:13;;;;;;;7.13;1.85;;;23.30;90.00;;;;;;5105838;28;20494;-65
2022/07/29 11:28:52;;;;;;;9.45;2.28;;;23.20;90.00;;;;;;5105017;28;20059;-68
2022/07/29 11:31:35;;;;;;;4.22;2.10;;;23.30;90.10;;;;;;5094916;28;20041;-64
2022/07/29 11:34:27;;;;;;;5.40;1.73;;;23.40;90.60;;;;;;5078854;28;20125;-65
2022/07/29 11:37:11;;;;;;;8.50;1.75;;;23.50;90.50;;;;;;5111610;28;20524;-66
2022/07/29 11:39:46;;;;;;;4.93;1.88;;;23.70;87.60;;;;;;5095760;28;20052;-69
2022/07/29 11:42:16;;;;;;;3.40;1.90;;;23.70;87.50;;;;;;5108990;28;20058;-70
2022/07/29 11:45:10;;;;;;;5.22;2.08;;;23.80;88.30;;;;;;5109851;28;20116;-66
2022/07/29 11:47:58;;;;;;;5.20;2.20;;;23.90;88.00;;;;;;5111461;28;20379;-64
2022/07/29 11:50:45;;;;;;;4.15;1.70;;;23.90;85.10;;;;;;5087882;28;20422;-66
2022/07/29 11:53:14;;;;;;;4.30;2.13;;;23.90;83.80;;;;;;5075040;28;20094;-54
2022/07/29 11:55:42;;;;;;;7.60;5.70;;;23.70;83.70;;;;;;5105564;28;20487;-53
2022/07/29 11:58:22;;;;;;;5.30;3.10;;;23.60;83.50;;;;;;5097319;28;20123;-65
2022/07/29 12:00:51;;;;;;;6.32;2.50;;;23.80;85.20;;;;;;5108836;28;20122;-65
2022/07/29 12:03:25;;;;;;;7.57;1.95;;;23.90;83.50;;;;;;5105510;28;20048;-69
2022/07/29 12:06:01;;;;;;;3.88;1.75;;;24.10;82.50;;;;;;5089109;28;20047;-66
2022/07/29 12:08:28;;;;;;;6.68;2.05;;;24.10;81.90;;;;;;5110584;28;20719;-66
2022/07/29 12:10:55;;;;;;;4.70;2.10;;;24.20;83.20;;;;;;5107625;28;20051;-66
2022/07/29 12:13:23;;;;;;;9.27;2.67;;;24.20;83.20;;;;;;5111078;28;20056;-66
2022/07/29 12:16:04;;;;;;;8.02;2.33;;;24.40;81.30;;;;;;5110891;28;20056;-67
2022/07/29 12:18:31;;;;;;;7.05;2.58;;;24.40;79.70;;;;;;5110911;28;20388;-63
2022/07/29 12:21:04;;;;;;;5.55;2.90;;;24.40;80.00;;;;;;5111091;28;20049;-66
2022/07/29 12:23:34;;;;;;;7.68;2.40;;;24.60;79.90;;;;;;5091202;28;20055;-63
2022/07/29 12:26:10;;;;;;;9.00;6.00;;;24.70;80.20;;;;;;5106342;28;20535;-69
2022/07/29 12:28:51;;;;;;;4.72;2.65;;;24.70;77.90;;;;;;5105353;28;20626;-67
2022/07/29 12:31:20;;;;;;;;;;;24.80;78.00;;;;;;5107406;28;20058;-70
2022/07/29 12:34:07;;;;;;;9.02;2.33;;;24.90;77.20;;;;;;5098506;28;20363;-68
2022/07/29 12:36:36;;;;;;;8.05;2.78;;;24.90;76.80;;;;;;5094956;28;20048;-67
2022/07/29 12:39:03;;;;;;;4.88;2.15;;;24.90;78.20;;;;;;5103535;28;20063;-67
2022/07/29 12:41:30;;;;;;;3.30;1.45;;;25.00;76.60;;;;;;5091118;28;20487;-68
2022/07/29 12:43:57;;;;;;;7.47;2.30;;;25.00;76.30;;;;;;5091806;28;20044;-68
2022/07/29 12:46:24;;;;;;;5.25;2.03;;;25.10;75.80;;;;;;5098381;28;20052;-68
2022/07/29 12:48:56;;;;;;;7.72;2.30;;;25.20;74.50;;;;;;5112454;28;20050;-68
2022/07/29 12:51:31;;;;;;;4.65;1.95;;;25.20;73.10;;;;;;5108423;28;20124;-68
2022/07/29 12:54:11;;;;;;;5.10;2.45;;;25.20;72.00;;;;;;5095956;28;20487;-68
2022/07/29 12:56:39;;;;;;;4.22;1.70;;;25.20;72.40;;;;;;5107008;28;20051;-65
2022/07/29 12:59:21;;;;;;;4.10;1.58;;;25.40;72.80;;;;;;5092424;28;20060;-64
2022/07/29 13:01:51;;;;;;;4.43;1.80;;;25.30;73.40;;;;;;5075049;28;20040;-63
2022/07/29 13:04:44;;;;;;;4.50;1.92;;;25.50;73.30;;;;;;5107084;28;20059;-68
2022/07/29 13:07:13;;;;;;;6.47;2.40;;;25.40;71.30;;;;;;5084141;28;20083;-68
2022/07/29 13:09:45;;;;;;;5.05;1.80;;;25.50;71.70;;;;;;5111482;28;20044;-68